Killingworth, CT

7:51 PM EST on January 30, 2015 (GMT -0500)
Bishops Orchards-Meadow Ridge | Change Station
CLOSE
Current Station
Personal Weather Station
Location: Guilford, CT
Elevation: 157 ft
Nearby Weather Stations

Elev 157 ft 41.32 °N, 72.69 °W | Updated 13 seconds ago

Clear
Clear
25.2 °F
Feels Like 18 °F
N
6.0
Wind Variable Wind from NNE
Gusts 23.0 mph

Today
High -- | Low -- °F
--% Chance of Precip.
Yesterday
High -- | Low -- °F
Precip. -- in
7:03 AM 5:03 PM
Waxing Gibbous, 86% visible
Pressure 29.82 in
Visibility 10.0 miles
Clouds Clear
Windchill 18 °F
Dew Point 14 °F
Humidity 63%
Rainfall 0.02 in
Snow Depth Not available.
UV 0.0 out of 12
Pollen .10 out of 12
Air Quality Not available.
Flu Activity Not available.
METAR KSNC 310035Z AUTO 33015G21KT 10SM CLR M03/M10 A2982 RMK AO2

More Conditions Fewer Conditions

Pressure 29.82 in
Visibility 10.0 miles
Clouds Clear
Windchill 18 °F
Dew Point 14 °F
Humidity 63%
Rainfall 0.02 in
Snow Depth Not available.
UV 0.0 out of 12
Pollen .10 out of 12
Air Quality Not available.
Flu Activity Not available.
METAR KSNC 310035Z AUTO 33015G21KT 10SM CLR M03/M10 A2982 RMK AO2

More Conditions Fewer Conditions

10-Day Weather Forecast

Almanac

Astronomy

Jan. 30, 2015 Rise Set
Actual Time
Civil Twilight
Nautical Twilight
Astronomical Twilight
Moon
Length of Visible Light
Length of Day
Tomorrow will be .
, % of the Moon is Illuminated

Today's Extremes

State Highs State Lows

Community

WunderPhotos

Upload Photos

1,791,942 photos uploaded!

WunderBlogs® & News

Nearby

Air Quality

  Air Quality AQ Index Pollutant
Not available.

Snow Depth

Station Depth Elevation

Earthquake Activity

City Distance Mag. Time & Date
Minimum magnitude displayed is 2.5.

Coastal Water Temperatures

Place Temperature

Nearby Weather Stations